sensor_id;sensor_type;location;lat;lon;timestamp;P1;durP1;ratioP1;P2;durP2;ratioP2
36205;SDS011;22242;48.796;9.930;2022-09-16T00:00:58;5.57;;;4.90;;
36205;SDS011;22242;48.796;9.930;2022-09-16T00:03:25;6.60;;;5.07;;
36205;SDS011;22242;48.796;9.930;2022-09-16T00:05:53;6.28;;;4.78;;
36205;SDS011;22242;48.796;9.930;2022-09-16T00:08:21;6.95;;;5.15;;
36205;SDS011;22242;48.796;9.930;2022-09-16T00:10:48;8.27;;;5.25;;
36205;SDS011;22242;48.796;9.930;2022-09-16T00:13:15;7.60;;;5.20;;
36205;SDS011;22242;48.796;9.930;2022-09-16T00:15:43;8.20;;;5.10;;
36205;SDS011;22242;48.796;9.930;2022-09-16T00:18:11;5.40;;;4.85;;
36205;SDS011;22242;48.796;9.930;2022-09-16T00:20:42;8.98;;;5.18;;
36205;SDS011;22242;48.796;9.930;2022-09-16T00:23:11;10.13;;;4.40;;
36205;SDS011;22242;48.796;9.930;2022-09-16T00:25:37;9.40;;;5.38;;
36205;SDS011;22242;48.796;9.930;2022-09-16T00:28:04;6.03;;;5.03;;
36205;SDS011;22242;48.796;9.930;2022-09-16T00:30:31;5.57;;;5.00;;
36205;SDS011;22242;48.796;9.930;2022-09-16T00:32:58;9.23;;;4.88;;
36205;SDS011;22242;48.796;9.930;2022-09-16T00:35:25;7.68;;;4.68;;
36205;SDS011;22242;48.796;9.930;2022-09-16T00:37:52;9.07;;;4.90;;
36205;SDS011;22242;48.796;9.930;2022-09-16T00:40:20;12.50;;;6.25;;
36205;SDS011;22242;48.796;9.930;2022-09-16T00:42:47;8.98;;;5.43;;
36205;SDS011;22242;48.796;9.930;2022-09-16T00:45:15;9.90;;;5.35;;
36205;SDS011;22242;48.796;9.930;2022-09-16T00:47:44;7.90;;;5.97;;
36205;SDS011;22242;48.796;9.930;2022-09-16T00:50:16;6.70;;;4.95;;
36205;SDS011;22242;48.796;9.930;2022-09-16T00:52:46;7.38;;;4.53;;
36205;SDS011;22242;48.796;9.930;2022-09-16T00:55:16;6.90;;;5.18;;
36205;SDS011;22242;48.796;9.930;2022-09-16T00:57:47;9.10;;;5.47;;
36205;SDS011;22242;48.796;9.930;2022-09-16T01:00:15;6.28;;;5.15;;
36205;SDS011;22242;48.796;9.930;2022-09-16T01:02:42;8.63;;;5.57;;
36205;SDS011;22242;48.796;9.930;2022-09-16T01:05:12;8.90;;;5.47;;
36205;SDS011;22242;48.796;9.930;2022-09-16T01:07:42;7.57;;;5.30;;
36205;SDS011;22242;48.796;9.930;2022-09-16T01:10:11;7.88;;;4.97;;
36205;SDS011;22242;48.796;9.930;2022-09-16T01:12:39;8.90;;;5.60;;
36205;SDS011;22242;48.796;9.930;2022-09-16T01:15:10;10.20;;;5.05;;
36205;SDS011;22242;48.796;9.930;2022-09-16T01:17:51;8.43;;;5.35;;
36205;SDS011;22242;48.796;9.930;2022-09-16T01:26:45;8.77;;;6.25;;
36205;SDS011;22242;48.796;9.930;2022-09-16T01:29:30;7.15;;;5.63;;
36205;SDS011;22242;48.796;9.930;2022-09-16T01:32:15;9.00;;;5.35;;
36205;SDS011;22242;48.796;9.930;2022-09-16T01:34:52;9.50;;;6.00;;
36205;SDS011;22242;48.796;9.930;2022-09-16T01:37:31;8.13;;;5.57;;
36205;SDS011;22242;48.796;9.930;2022-09-16T01:40:05;10.60;;;5.43;;
36205;SDS011;22242;48.796;9.930;2022-09-16T01:42:36;8.32;;;5.45;;
36205;SDS011;22242;48.796;9.930;2022-09-16T01:45:07;10.15;;;5.60;;
36205;SDS011;22242;48.796;9.930;2022-09-16T01:47:43;9.13;;;5.22;;
36205;SDS011;22242;48.796;9.930;2022-09-16T01:50:18;6.88;;;5.40;;
36205;SDS011;22242;48.796;9.930;2022-09-16T01:52:53;12.73;;;5.55;;
36205;SDS011;22242;48.796;9.930;2022-09-16T01:55:27;7.75;;;5.90;;
36205;SDS011;22242;48.796;9.930;2022-09-16T01:57:59;11.00;;;5.88;;
36205;SDS011;22242;48.796;9.930;2022-09-16T02:00:32;7.32;;;5.88;;
36205;SDS011;22242;48.796;9.930;2022-09-16T02:03:00;7.45;;;5.95;;
36205;SDS011;22242;48.796;9.930;2022-09-16T02:05:33;8.50;;;5.78;;
36205;SDS011;22242;48.796;9.930;2022-09-16T02:08:03;8.68;;;6.00;;
36205;SDS011;22242;48.796;9.930;2022-09-16T02:10:34;8.57;;;5.55;;
36205;SDS011;22242;48.796;9.930;2022-09-16T02:13:07;9.15;;;6.05;;
36205;SDS011;22242;48.796;9.930;2022-09-16T02:15:39;7.63;;;5.82;;
36205;SDS011;22242;48.796;9.930;2022-09-16T02:18:10;6.75;;;5.43;;
36205;SDS011;22242;48.796;9.930;2022-09-16T02:20:41;10.43;;;6.68;;
36205;SDS011;22242;48.796;9.930;2022-09-16T02:23:13;8.77;;;5.70;;
36205;SDS011;22242;48.796;9.930;2022-09-16T02:25:44;8.05;;;6.35;;
36205;SDS011;22242;48.796;9.930;2022-09-16T02:28:15;11.40;;;6.50;;
36205;SDS011;22242;48.796;9.930;2022-09-16T02:30:46;9.75;;;6.80;;
36205;SDS011;22242;48.796;9.930;2022-09-16T02:33:18;9.43;;;6.28;;
36205;SDS011;22242;48.796;9.930;2022-09-16T02:35:46;8.88;;;6.30;;
36205;SDS011;22242;48.796;9.930;2022-09-16T02:38:19;8.18;;;6.65;;
36205;SDS011;22242;48.796;9.930;2022-09-16T02:40:49;8.10;;;6.93;;
36205;SDS011;22242;48.796;9.930;2022-09-16T02:43:19;8.63;;;7.43;;
36205;SDS011;22242;48.796;9.930;2022-09-16T02:45:47;9.95;;;6.85;;
36205;SDS011;22242;48.796;9.930;2022-09-16T02:48:26;8.05;;;7.25;;
36205;SDS011;22242;48.796;9.930;2022-09-16T02:51:03;11.98;;;7.60;;
36205;SDS011;22242;48.796;9.930;2022-09-16T02:53:39;9.90;;;6.88;;
36205;SDS011;22242;48.796;9.930;2022-09-16T02:56:13;11.32;;;7.22;;
36205;SDS011;22242;48.796;9.930;2022-09-16T02:58:47;12.18;;;7.13;;
36205;SDS011;22242;48.796;9.930;2022-09-16T03:01:14;12.60;;;7.28;;
36205;SDS011;22242;48.796;9.930;2022-09-16T03:03:44;13.18;;;7.75;;
36205;SDS011;22242;48.796;9.930;2022-09-16T03:06:16;12.52;;;7.32;;
36205;SDS011;22242;48.796;9.930;2022-09-16T03:11:17;13.15;;;8.45;;
36205;SDS011;22242;48.796;9.930;2022-09-16T03:13:58;11.30;;;7.82;;
36205;SDS011;22242;48.796;9.930;2022-09-16T03:16:39;10.55;;;7.72;;
36205;SDS011;22242;48.796;9.930;2022-09-16T03:19:17;10.63;;;8.35;;
36205;SDS011;22242;48.796;9.930;2022-09-16T03:21:52;11.55;;;8.77;;
36205;SDS011;22242;48.796;9.930;2022-09-16T03:24:25;12.48;;;8.43;;
36205;SDS011;22242;48.796;9.930;2022-09-16T03:27:03;12.65;;;8.90;;
36205;SDS011;22242;48.796;9.930;2022-09-16T03:29:36;12.25;;;8.45;;
36205;SDS011;22242;48.796;9.930;2022-09-16T03:32:06;10.95;;;8.00;;
36205;SDS011;22242;48.796;9.930;2022-09-16T03:34:41;14.65;;;8.68;;
36205;SDS011;22242;48.796;9.930;2022-09-16T03:37:13;11.00;;;7.82;;
36205;SDS011;22242;48.796;9.930;2022-09-16T03:39:46;10.95;;;8.20;;
36205;SDS011;22242;48.796;9.930;2022-09-16T03:42:20;12.32;;;7.75;;
36205;SDS011;22242;48.796;9.930;2022-09-16T03:44:47;11.80;;;7.95;;
36205;SDS011;22242;48.796;9.930;2022-09-16T03:47:14;9.98;;;7.78;;
36205;SDS011;22242;48.796;9.930;2022-09-16T03:49:43;12.65;;;8.85;;
36205;SDS011;22242;48.796;9.930;2022-09-16T03:52:10;22.23;;;9.05;;
36205;SDS011;22242;48.796;9.930;2022-09-16T03:54:37;11.30;;;8.15;;
36205;SDS011;22242;48.796;9.930;2022-09-16T03:57:04;11.30;;;8.32;;
36205;SDS011;22242;48.796;9.930;2022-09-16T03:59:31;16.58;;;9.50;;
36205;SDS011;22242;48.796;9.930;2022-09-16T04:01:58;10.73;;;8.25;;
36205;SDS011;22242;48.796;9.930;2022-09-16T04:04:25;12.95;;;10.00;;
36205;SDS011;22242;48.796;9.930;2022-09-16T04:06:53;12.65;;;9.65;;
36205;SDS011;22242;48.796;9.930;2022-09-16T04:09:20;17.20;;;10.60;;
36205;SDS011;22242;48.796;9.930;2022-09-16T04:11:47;13.40;;;9.18;;
36205;SDS011;22242;48.796;9.930;2022-09-16T04:14:14;16.15;;;8.80;;
36205;SDS011;22242;48.796;9.930;2022-09-16T04:16:41;15.98;;;9.40;;
36205;SDS011;22242;48.796;9.930;2022-09-16T04:19:08;14.75;;;9.80;;
36205;SDS011;22242;48.796;9.930;2022-09-16T04:21:37;12.18;;;9.40;;
36205;SDS011;22242;48.796;9.930;2022-09-16T04:24:05;14.40;;;9.45;;
36205;SDS011;22242;48.796;9.930;2022-09-16T04:26:34;11.63;;;9.27;;
36205;SDS011;22242;48.796;9.930;2022-09-16T04:29:01;14.88;;;8.80;;
36205;SDS011;22242;48.796;9.930;2022-09-16T04:31:28;14.50;;;10.43;;
36205;SDS011;22242;48.796;9.930;2022-09-16T04:33:54;14.48;;;9.90;;
36205;SDS011;22242;48.796;9.930;2022-09-16T04:36:21;12.68;;;9.82;;
36205;SDS011;22242;48.796;9.930;2022-09-16T04:38:48;17.92;;;10.50;;
36205;SDS011;22242;48.796;9.930;2022-09-16T04:41:17;16.38;;;10.27;;
36205;SDS011;22242;48.796;9.930;2022-09-16T04:43:45;15.02;;;10.02;;
36205;SDS011;22242;48.796;9.930;2022-09-16T04:46:16;15.15;;;10.32;;
36205;SDS011;22242;48.796;9.930;2022-09-16T04:48:45;16.10;;;10.50;;
36205;SDS011;22242;48.796;9.930;2022-09-16T04:51:12;11.75;;;9.13;;
36205;SDS011;22242;48.796;9.930;2022-09-16T04:53:40;15.15;;;10.07;;
36205;SDS011;22242;48.796;9.930;2022-09-16T04:56:09;15.05;;;10.23;;
36205;SDS011;22242;48.796;9.930;2022-09-16T04:58:41;16.55;;;10.13;;
36205;SDS011;22242;48.796;9.930;2022-09-16T05:01:10;20.67;;;11.00;;
36205;SDS011;22242;48.796;9.930;2022-09-16T05:03:38;15.98;;;10.80;;
36205;SDS011;22242;48.796;9.930;2022-09-16T05:06:07;16.75;;;10.75;;
36205;SDS011;22242;48.796;9.930;2022-09-16T05:08:35;13.88;;;9.35;;
36205;SDS011;22242;48.796;9.930;2022-09-16T05:11:03;13.93;;;9.57;;
36205;SDS011;22242;48.796;9.930;2022-09-16T05:13:31;13.73;;;9.93;;
36205;SDS011;22242;48.796;9.930;2022-09-16T05:16:04;15.93;;;10.23;;
36205;SDS011;22242;48.796;9.930;2022-09-16T05:18:32;15.57;;;8.93;;
36205;SDS011;22242;48.796;9.930;2022-09-16T05:21:00;17.70;;;9.75;;
36205;SDS011;22242;48.796;9.930;2022-09-16T05:23:29;15.15;;;9.07;;
36205;SDS011;22242;48.796;9.930;2022-09-16T05:26:01;15.35;;;9.10;;
36205;SDS011;22242;48.796;9.930;2022-09-16T05:28:29;11.85;;;9.65;;
36205;SDS011;22242;48.796;9.930;2022-09-16T05:31:07;14.38;;;9.10;;
36205;SDS011;22242;48.796;9.930;2022-09-16T05:33:35;12.65;;;9.00;;
36205;SDS011;22242;48.796;9.930;2022-09-16T05:36:03;16.17;;;9.23;;
36205;SDS011;22242;48.796;9.930;2022-09-16T05:38:31;14.02;;;8.88;;
36205;SDS011;22242;48.796;9.930;2022-09-16T05:40:58;12.82;;;8.60;;
36205;SDS011;22242;48.796;9.930;2022-09-16T05:43:25;12.27;;;9.05;;
36205;SDS011;22242;48.796;9.930;2022-09-16T05:45:52;18.02;;;10.95;;
36205;SDS011;22242;48.796;9.930;2022-09-16T05:48:22;17.85;;;11.45;;
36205;SDS011;22242;48.796;9.930;2022-09-16T05:50:50;14.23;;;10.07;;
36205;SDS011;22242;48.796;9.930;2022-09-16T05:53:17;15.45;;;10.25;;
36205;SDS011;22242;48.796;9.930;2022-09-16T05:55:53;16.98;;;9.77;;
36205;SDS011;22242;48.796;9.930;2022-09-16T05:58:21;14.52;;;10.07;;
36205;SDS011;22242;48.796;9.930;2022-09-16T06:00:48;16.13;;;10.30;;
36205;SDS011;22242;48.796;9.930;2022-09-16T06:03:15;16.80;;;10.13;;
36205;SDS011;22242;48.796;9.930;2022-09-16T06:05:43;16.90;;;10.23;;
36205;SDS011;22242;48.796;9.930;2022-09-16T06:08:10;14.98;;;10.38;;
36205;SDS011;22242;48.796;9.930;2022-09-16T06:10:37;16.70;;;10.95;;
36205;SDS011;22242;48.796;9.930;2022-09-16T06:13:04;15.38;;;11.57;;
36205;SDS011;22242;48.796;9.930;2022-09-16T06:15:30;14.45;;;10.82;;
36205;SDS011;22242;48.796;9.930;2022-09-16T06:17:58;15.75;;;10.73;;
36205;SDS011;22242;48.796;9.930;2022-09-16T06:20:25;14.55;;;10.68;;
36205;SDS011;22242;48.796;9.930;2022-09-16T06:22:53;15.90;;;11.50;;
36205;SDS011;22242;48.796;9.930;2022-09-16T06:25:20;19.52;;;11.57;;
36205;SDS011;22242;48.796;9.930;2022-09-16T06:27:47;15.90;;;11.13;;
36205;SDS011;22242;48.796;9.930;2022-09-16T06:30:14;14.68;;;10.88;;
36205;SDS011;22242;48.796;9.930;2022-09-16T06:32:40;16.95;;;11.73;;
36205;SDS011;22242;48.796;9.930;2022-09-16T06:35:07;17.02;;;10.55;;
36205;SDS011;22242;48.796;9.930;2022-09-16T06:37:34;15.15;;;10.20;;
36205;SDS011;22242;48.796;9.930;2022-09-16T06:40:03;16.05;;;10.23;;
36205;SDS011;22242;48.796;9.930;2022-09-16T06:42:30;14.77;;;11.15;;
36205;SDS011;22242;48.796;9.930;2022-09-16T06:45:02;13.30;;;10.20;;
36205;SDS011;22242;48.796;9.930;2022-09-16T06:47:29;14.45;;;10.13;;
36205;SDS011;22242;48.796;9.930;2022-09-16T06:49:57;15.15;;;10.50;;
36205;SDS011;22242;48.796;9.930;2022-09-16T06:52:24;11.98;;;9.70;;
36205;SDS011;22242;48.796;9.930;2022-09-16T06:54:51;13.85;;;8.85;;
36205;SDS011;22242;48.796;9.930;2022-09-16T06:57:20;13.13;;;8.93;;
36205;SDS011;22242;48.796;9.930;2022-09-16T06:59:48;17.20;;;8.48;;
36205;SDS011;22242;48.796;9.930;2022-09-16T07:02:15;10.90;;;7.65;;
36205;SDS011;22242;48.796;9.930;2022-09-16T07:04:42;11.68;;;8.30;;
36205;SDS011;22242;48.796;9.930;2022-09-16T07:07:09;15.35;;;8.70;;
36205;SDS011;22242;48.796;9.930;2022-09-16T07:09:36;11.80;;;8.05;;
36205;SDS011;22242;48.796;9.930;2022-09-16T07:12:03;10.60;;;8.20;;
36205;SDS011;22242;48.796;9.930;2022-09-16T07:14:32;11.18;;;7.82;;
36205;SDS011;22242;48.796;9.930;2022-09-16T07:16:59;10.55;;;7.72;;
36205;SDS011;22242;48.796;9.930;2022-09-16T07:19:27;10.35;;;5.18;;
36205;SDS011;22242;48.796;9.930;2022-09-16T07:21:54;7.43;;;4.90;;
36205;SDS011;22242;48.796;9.930;2022-09-16T07:24:21;5.28;;;3.05;;
36205;SDS011;22242;48.796;9.930;2022-09-16T07:26:48;5.95;;;3.38;;
36205;SDS011;22242;48.796;9.930;2022-09-16T07:29:16;6.60;;;3.22;;
36205;SDS011;22242;48.796;9.930;2022-09-16T07:31:45;9.95;;;3.88;;
36205;SDS011;22242;48.796;9.930;2022-09-16T07:34:12;6.40;;;3.47;;
36205;SDS011;22242;48.796;9.930;2022-09-16T07:36:39;5.78;;;3.83;;
36205;SDS011;22242;48.796;9.930;2022-09-16T07:39:08;9.65;;;4.22;;
36205;SDS011;22242;48.796;9.930;2022-09-16T07:41:37;6.75;;;4.30;;
36205;SDS011;22242;48.796;9.930;2022-09-16T07:44:05;4.47;;;3.30;;
36205;SDS011;22242;48.796;9.930;2022-09-16T07:46:35;6.18;;;3.30;;
36205;SDS011;22242;48.796;9.930;2022-09-16T07:49:04;5.32;;;3.40;;
36205;SDS011;22242;48.796;9.930;2022-09-16T07:51:32;5.82;;;3.35;;
36205;SDS011;22242;48.796;9.930;2022-09-16T07:54:00;8.02;;;4.00;;
36205;SDS011;22242;48.796;9.930;2022-09-16T07:56:29;8.32;;;3.50;;
36205;SDS011;22242;48.796;9.930;2022-09-16T07:59:00;6.57;;;2.80;;
36205;SDS011;22242;48.796;9.930;2022-09-16T08:01:27;4.97;;;3.13;;
36205;SDS011;22242;48.796;9.930;2022-09-16T08:03:55;5.00;;;3.05;;
36205;SDS011;22242;48.796;9.930;2022-09-16T08:06:25;4.28;;;2.70;;
36205;SDS011;22242;48.796;9.930;2022-09-16T08:08:54;3.55;;;2.90;;
36205;SDS011;22242;48.796;9.930;2022-09-16T08:11:24;5.57;;;3.42;;
36205;SDS011;22242;48.796;9.930;2022-09-16T08:13:52;4.53;;;3.13;;
36205;SDS011;22242;48.796;9.930;2022-09-16T08:16:20;6.18;;;3.20;;
36205;SDS011;22242;48.796;9.930;2022-09-16T08:18:48;6.13;;;3.35;;
36205;SDS011;22242;48.796;9.930;2022-09-16T08:21:19;6.30;;;3.50;;
36205;SDS011;22242;48.796;9.930;2022-09-16T08:23:49;6.25;;;3.00;;
36205;SDS011;22242;48.796;9.930;2022-09-16T08:26:16;5.72;;;3.17;;
36205;SDS011;22242;48.796;9.930;2022-09-16T08:28:44;6.00;;;3.55;;
36205;SDS011;22242;48.796;9.930;2022-09-16T08:31:13;4.60;;;3.10;;
36205;SDS011;22242;48.796;9.930;2022-09-16T08:33:41;3.90;;;2.85;;
36205;SDS011;22242;48.796;9.930;2022-09-16T08:36:10;5.97;;;2.55;;
36205;SDS011;22242;48.796;9.930;2022-09-16T08:38:39;6.20;;;2.38;;
36205;SDS011;22242;48.796;9.930;2022-09-16T08:41:14;4.97;;;2.60;;
36205;SDS011;22242;48.796;9.930;2022-09-16T08:43:49;2.15;;;1.90;;
36205;SDS011;22242;48.796;9.930;2022-09-16T08:46:25;2.78;;;1.70;;
36205;SDS011;22242;48.796;9.930;2022-09-16T08:48:58;5.53;;;1.98;;
36205;SDS011;22242;48.796;9.930;2022-09-16T08:51:28;3.65;;;2.20;;
36205;SDS011;22242;48.796;9.930;2022-09-16T08:53:56;3.88;;;2.10;;
36205;SDS011;22242;48.796;9.930;2022-09-16T08:56:29;3.75;;;2.05;;
36205;SDS011;22242;48.796;9.930;2022-09-16T08:59:01;3.10;;;2.50;;
36205;SDS011;22242;48.796;9.930;2022-09-16T09:01:35;3.58;;;2.63;;
36205;SDS011;22242;48.796;9.930;2022-09-16T09:04:06;4.05;;;2.50;;
36205;SDS011;22242;48.796;9.930;2022-09-16T09:06:44;2.47;;;2.15;;
36205;SDS011;22242;48.796;9.930;2022-09-16T09:09:28;5.15;;;2.80;;
36205;SDS011;22242;48.796;9.930;2022-09-16T09:12:17;4.45;;;2.67;;
36205;SDS011;22242;48.796;9.930;2022-09-16T09:14:55;2.63;;;2.42;;
36205;SDS011;22242;48.796;9.930;2022-09-16T09:17:35;2.70;;;2.40;;
36205;SDS011;22242;48.796;9.930;2022-09-16T09:20:23;4.45;;;2.53;;
36205;SDS011;22242;48.796;9.930;2022-09-16T09:23:03;6.00;;;2.45;;
36205;SDS011;22242;48.796;9.930;2022-09-16T09:25:39;5.30;;;3.13;;
36205;SDS011;22242;48.796;9.930;2022-09-16T09:28:17;3.60;;;2.70;;
36205;SDS011;22242;48.796;9.930;2022-09-16T09:31:01;3.80;;;2.85;;
36205;SDS011;22242;48.796;9.930;2022-09-16T09:33:36;4.50;;;2.78;;
36205;SDS011;22242;48.796;9.930;2022-09-16T09:36:31;4.90;;;3.50;;
36205;SDS011;22242;48.796;9.930;2022-09-16T09:39:22;5.07;;;2.50;;
36205;SDS011;22242;48.796;9.930;2022-09-16T09:42:04;4.53;;;2.00;;
36205;SDS011;22242;48.796;9.930;2022-09-16T09:44:46;3.08;;;2.35;;
36205;SDS011;22242;48.796;9.930;2022-09-16T09:47:18;7.68;;;3.17;;
36205;SDS011;22242;48.796;9.930;2022-09-16T09:49:49;4.43;;;2.97;;
36205;SDS011;22242;48.796;9.930;2022-09-16T09:52:20;4.78;;;2.33;;
36205;SDS011;22242;48.796;9.930;2022-09-16T09:54:58;3.45;;;2.78;;
36205;SDS011;22242;48.796;9.930;2022-09-16T09:57:32;4.82;;;3.15;;
36205;SDS011;22242;48.796;9.930;2022-09-16T10:00:10;4.90;;;3.10;;
36205;SDS011;22242;48.796;9.930;2022-09-16T10:02:41;3.63;;;2.60;;
36205;SDS011;22242;48.796;9.930;2022-09-16T10:05:11;3.00;;;2.42;;
36205;SDS011;22242;48.796;9.930;2022-09-16T10:07:46;6.65;;;3.13;;
36205;SDS011;22242;48.796;9.930;2022-09-16T10:10:14;4.50;;;2.83;;
36205;SDS011;22242;48.796;9.930;2022-09-16T10:12:44;5.75;;;2.28;;
36205;SDS011;22242;48.796;9.930;2022-09-16T10:15:22;3.38;;;2.70;;
36205;SDS011;22242;48.796;9.930;2022-09-16T10:17:52;4.20;;;2.70;;
36205;SDS011;22242;48.796;9.930;2022-09-16T10:20:21;2.67;;;2.47;;
36205;SDS011;22242;48.796;9.930;2022-09-16T10:22:57;2.67;;;2.33;;
36205;SDS011;22242;48.796;9.930;2022-09-16T10:25:26;4.72;;;2.60;;
36205;SDS011;22242;48.796;9.930;2022-09-16T10:27:55;3.78;;;2.38;;
36205;SDS011;22242;48.796;9.930;2022-09-16T10:30:26;3.45;;;2.25;;
36205;SDS011;22242;48.796;9.930;2022-09-16T10:32:57;5.15;;;2.35;;
36205;SDS011;22242;48.796;9.930;2022-09-16T10:35:27;4.53;;;2.70;;
36205;SDS011;22242;48.796;9.930;2022-09-16T10:37:56;3.58;;;2.33;;
36205;SDS011;22242;48.796;9.930;2022-09-16T10:40:25;4.90;;;2.67;;
36205;SDS011;22242;48.796;9.930;2022-09-16T10:42:52;2.90;;;2.70;;
36205;SDS011;22242;48.796;9.930;2022-09-16T10:45:27;3.67;;;2.95;;
36205;SDS011;22242;48.796;9.930;2022-09-16T10:47:56;2.80;;;2.50;;
36205;SDS011;22242;48.796;9.930;2022-09-16T10:50:25;4.28;;;2.58;;
36205;SDS011;22242;48.796;9.930;2022-09-16T10:52:52;3.03;;;2.50;;
36205;SDS011;22242;48.796;9.930;2022-09-16T10:55:21;3.63;;;2.88;;
36205;SDS011;22242;48.796;9.930;2022-09-16T10:57:50;4.82;;;3.08;;
36205;SDS011;22242;48.796;9.930;2022-09-16T11:00:18;3.63;;;2.72;;
36205;SDS011;22242;48.796;9.930;2022-09-16T11:02:58;4.07;;;3.13;;
36205;SDS011;22242;48.796;9.930;2022-09-16T11:05:41;3.65;;;3.03;;
36205;SDS011;22242;48.796;9.930;2022-09-16T11:08:20;5.82;;;3.25;;
36205;SDS011;22242;48.796;9.930;2022-09-16T11:11:01;4.35;;;3.22;;
36205;SDS011;22242;48.796;9.930;2022-09-16T11:13:37;6.20;;;2.97;;
36205;SDS011;22242;48.796;9.930;2022-09-16T11:16:14;4.95;;;2.60;;
36205;SDS011;22242;48.796;9.930;2022-09-16T11:18:54;2.80;;;2.50;;
36205;SDS011;22242;48.796;9.930;2022-09-16T11:21:32;3.20;;;2.65;;
36205;SDS011;22242;48.796;9.930;2022-09-16T11:24:19;3.83;;;1.98;;
36205;SDS011;22242;48.796;9.930;2022-09-16T11:27:15;4.35;;;2.00;;
36205;SDS011;22242;48.796;9.930;2022-09-16T11:29:56;3.67;;;1.92;;
36205;SDS011;22242;48.796;9.930;2022-09-16T11:32:43;5.50;;;2.20;;
36205;SDS011;22242;48.796;9.930;2022-09-16T11:35:34;3.67;;;2.30;;
36205;SDS011;22242;48.796;9.930;2022-09-16T11:38:15;4.63;;;2.00;;
36205;SDS011;22242;48.796;9.930;2022-09-16T11:40:50;3.83;;;2.70;;
36205;SDS011;22242;48.796;9.930;2022-09-16T11:43:29;4.53;;;2.17;;
36205;SDS011;22242;48.796;9.930;2022-09-16T11:46:12;4.05;;;2.33;;
36205;SDS011;22242;48.796;9.930;2022-09-16T11:48:49;3.78;;;2.28;;
36205;SDS011;22242;48.796;9.930;2022-09-16T11:51:29;7.10;;;3.45;;
36205;SDS011;22242;48.796;9.930;2022-09-16T11:54:14;5.97;;;2.57;;
36205;SDS011;22242;48.796;9.930;2022-09-16T11:59:22;4.22;;;2.15;;
36205;SDS011;22242;48.796;9.930;2022-09-16T12:01:53;6.30;;;2.50;;
36205;SDS011;22242;48.796;9.930;2022-09-16T12:04:27;3.03;;;2.33;;
36205;SDS011;22242;48.796;9.930;2022-09-16T12:07:00;6.57;;;2.45;;
36205;SDS011;22242;48.796;9.930;2022-09-16T12:09:35;4.97;;;2.50;;
36205;SDS011;22242;48.796;9.930;2022-09-16T12:12:08;6.18;;;2.30;;
36205;SDS011;22242;48.796;9.930;2022-09-16T12:14:39;4.00;;;2.13;;
36205;SDS011;22242;48.796;9.930;2022-09-16T12:17:10;3.47;;;2.60;;
36205;SDS011;22242;48.796;9.930;2022-09-16T12:19:42;6.30;;;2.57;;
36205;SDS011;22242;48.796;9.930;2022-09-16T12:22:17;7.00;;;2.60;;
36205;SDS011;22242;48.796;9.930;2022-09-16T12:24:48;5.32;;;2.15;;
36205;SDS011;22242;48.796;9.930;2022-09-16T12:27:31;5.50;;;2.60;;
36205;SDS011;22242;48.796;9.930;2022-09-16T12:30:05;4.38;;;2.53;;
36205;SDS011;22242;48.796;9.930;2022-09-16T12:32:41;3.17;;;2.80;;
36205;SDS011;22242;48.796;9.930;2022-09-16T12:35:16;5.45;;;3.00;;
36205;SDS011;22242;48.796;9.930;2022-09-16T12:37:49;5.60;;;2.97;;
36205;SDS011;22242;48.796;9.930;2022-09-16T12:40:19;4.65;;;2.78;;
36205;SDS011;22242;48.796;9.930;2022-09-16T12:45:46;5.35;;;3.05;;
36205;SDS011;22242;48.796;9.930;2022-09-16T12:48:52;8.02;;;3.17;;
36205;SDS011;22242;48.796;9.930;2022-09-16T12:52:12;7.00;;;3.03;;
36205;SDS011;22242;48.796;9.930;2022-09-16T12:58:10;5.20;;;2.78;;
36205;SDS011;22242;48.796;9.930;2022-09-16T13:00:57;5.30;;;3.42;;
36205;SDS011;22242;48.796;9.930;2022-09-16T13:03:36;7.72;;;4.13;;
36205;SDS011;22242;48.796;9.930;2022-09-16T13:06:05;4.45;;;2.22;;
36205;SDS011;22242;48.796;9.930;2022-09-16T13:08:38;3.80;;;2.00;;
36205;SDS011;22242;48.796;9.930;2022-09-16T13:11:13;2.83;;;1.70;;
36205;SDS011;22242;48.796;9.930;2022-09-16T13:13:45;4.28;;;2.22;;
36205;SDS011;22242;48.796;9.930;2022-09-16T13:16:13;1.80;;;1.70;;
36205;SDS011;22242;48.796;9.930;2022-09-16T13:18:41;4.40;;;1.90;;
36205;SDS011;22242;48.796;9.930;2022-09-16T13:21:16;2.42;;;1.70;;
36205;SDS011;22242;48.796;9.930;2022-09-16T13:23:50;3.13;;;1.80;;
36205;SDS011;22242;48.796;9.930;2022-09-16T13:26:26;2.33;;;1.52;;
36205;SDS011;22242;48.796;9.930;2022-09-16T13:31:50;4.32;;;1.80;;
36205;SDS011;22242;48.796;9.930;2022-09-16T13:34:17;2.25;;;1.65;;
36205;SDS011;22242;48.796;9.930;2022-09-16T13:36:45;4.95;;;1.63;;
36205;SDS011;22242;48.796;9.930;2022-09-16T13:39:12;3.60;;;1.95;;
36205;SDS011;22242;48.796;9.930;2022-09-16T13:41:42;2.85;;;1.80;;
36205;SDS011;22242;48.796;9.930;2022-09-16T13:44:27;4.05;;;1.80;;
36205;SDS011;22242;48.796;9.930;2022-09-16T13:47:14;4.60;;;1.67;;
36205;SDS011;22242;48.796;9.930;2022-09-16T13:49:44;3.95;;;2.38;;
36205;SDS011;22242;48.796;9.930;2022-09-16T13:52:16;3.80;;;1.40;;
36205;SDS011;22242;48.796;9.930;2022-09-16T13:54:47;1.40;;;1.27;;
36205;SDS011;22242;48.796;9.930;2022-09-16T13:57:25;5.72;;;1.70;;
36205;SDS011;22242;48.796;9.930;2022-09-16T14:00:05;7.18;;;1.88;;
36205;SDS011;22242;48.796;9.930;2022-09-16T14:02:46;6.88;;;1.65;;
36205;SDS011;22242;48.796;9.930;2022-09-16T14:05:31;3.72;;;1.60;;
36205;SDS011;22242;48.796;9.930;2022-09-16T14:08:16;2.70;;;1.40;;
36205;SDS011;22242;48.796;9.930;2022-09-16T14:10:53;1.83;;;1.30;;
36205;SDS011;22242;48.796;9.930;2022-09-16T14:13:30;6.15;;;1.40;;
36205;SDS011;22242;48.796;9.930;2022-09-16T14:16:03;3.47;;;1.30;;
36205;SDS011;22242;48.796;9.930;2022-09-16T14:18:39;2.25;;;1.30;;
36205;SDS011;22242;48.796;9.930;2022-09-16T14:21:16;5.38;;;1.38;;
36205;SDS011;22242;48.796;9.930;2022-09-16T14:23:45;3.92;;;1.30;;
36205;SDS011;22242;48.796;9.930;2022-09-16T14:26:12;4.85;;;1.60;;
36205;SDS011;22242;48.796;9.930;2022-09-16T14:28:41;4.15;;;1.45;;
36205;SDS011;22242;48.796;9.930;2022-09-16T14:31:09;4.60;;;1.50;;
36205;SDS011;22242;48.796;9.930;2022-09-16T14:33:41;2.95;;;1.30;;
36205;SDS011;22242;48.796;9.930;2022-09-16T14:36:11;5.28;;;1.75;;
36205;SDS011;22242;48.796;9.930;2022-09-16T14:38:46;2.70;;;1.40;;
36205;SDS011;22242;48.796;9.930;2022-09-16T14:41:21;4.07;;;1.63;;
36205;SDS011;22242;48.796;9.930;2022-09-16T14:43:52;2.92;;;1.33;;
36205;SDS011;22242;48.796;9.930;2022-09-16T14:46:37;2.85;;;1.48;;
36205;SDS011;22242;48.796;9.930;2022-09-16T14:49:07;3.60;;;1.63;;
36205;SDS011;22242;48.796;9.930;2022-09-16T14:51:36;2.63;;;1.52;;
36205;SDS011;22242;48.796;9.930;2022-09-16T14:54:04;1.58;;;1.27;;
36205;SDS011;22242;48.796;9.930;2022-09-16T14:56:40;5.07;;;1.30;;
36205;SDS011;22242;48.796;9.930;2022-09-16T14:59:10;4.10;;;1.58;;
36205;SDS011;22242;48.796;9.930;2022-09-16T15:01:39;5.63;;;1.60;;
36205;SDS011;22242;48.796;9.930;2022-09-16T15:04:07;4.22;;;1.30;;
36205;SDS011;22242;48.796;9.930;2022-09-16T15:06:40;3.50;;;1.23;;
36205;SDS011;22242;48.796;9.930;2022-09-16T15:09:12;1.67;;;1.10;;
36205;SDS011;22242;48.796;9.930;2022-09-16T15:11:44;3.80;;;1.35;;
36205;SDS011;22242;48.796;9.930;2022-09-16T15:14:15;3.38;;;1.13;;
36205;SDS011;22242;48.796;9.930;2022-09-16T15:16:43;4.35;;;1.52;;
36205;SDS011;22242;48.796;9.930;2022-09-16T15:19:16;4.32;;;1.10;;
36205;SDS011;22242;48.796;9.930;2022-09-16T15:21:46;4.30;;;1.35;;
36205;SDS011;22242;48.796;9.930;2022-09-16T15:24:14;3.60;;;1.40;;
36205;SDS011;22242;48.796;9.930;2022-09-16T15:26:44;2.97;;;1.20;;
36205;SDS011;22242;48.796;9.930;2022-09-16T15:29:12;3.88;;;1.45;;
36205;SDS011;22242;48.796;9.930;2022-09-16T15:32:00;2.80;;;1.50;;